Time;durP1;ratioP1;P1;durP2;ratioP2;P2;SDS_P1;SDS_P2;PMS_P1;PMS_P2;Temp;Humidity;BMP_temperature;BMP_pressure;BME280_temperature;BME280_humidity;BME280_pressure;Samples;Min_cycle;Max_cycle;Signal;HPM_P1;HPM_P2
2021/12/10 00:01:52;;;;;;;8.35;3.28;;;2.50;22.50;;;;;;5119759;27;20058;-75
2021/12/10 00:04:29;;;;;;;6.47;2.58;;;2.50;23.30;;;;;;5096007;27;20040;-75
2021/12/10 00:06:59;;;;;;;5.82;2.28;;;2.50;23.40;;;;;;5113444;27;20039;-75
2021/12/10 00:09:31;;;;;;;5.45;2.35;;;2.50;22.30;;;;;;5114882;27;20043;-75
2021/12/10 00:12:06;;;;;;;11.13;3.00;;;2.50;21.50;;;;;;5120416;27;20051;-75
2021/12/10 00:14:36;;;;;;;6.70;2.53;;;2.40;21.40;;;;;;5120426;27;20103;-76
2021/12/10 00:17:09;;;;;;;8.18;3.28;;;2.30;21.80;;;;;;5099639;27;20279;-76
2021/12/10 00:19:43;;;;;;;5.75;2.72;;;2.20;23.00;;;;;;5116438;27;20423;-75
2021/12/10 00:22:15;;;;;;;16.48;2.83;;;2.30;23.00;;;;;;5121353;27;20062;-75
2021/12/10 00:24:45;;;;;;;7.97;2.60;;;2.30;22.00;;;;;;5093978;27;20909;-76
2021/12/10 00:27:14;;;;;;;10.50;2.53;;;2.20;22.00;;;;;;5116782;27;20252;-76
2021/12/10 00:29:49;;;;;;;8.77;2.72;;;2.10;22.50;;;;;;5109585;27;20048;-76
2021/12/10 00:32:30;;;;;;;6.05;2.75;;;2.10;22.90;;;;;;5113503;27;20126;-76
2021/12/10 00:34:59;;;;;;;9.30;2.35;;;2.10;23.00;;;;;;5114613;27;20047;-75
2021/12/10 00:37:27;;;;;;;8.27;3.28;;;2.10;22.50;;;;;;5119075;27;20099;-75
2021/12/10 00:39:59;;;;;;;5.57;2.20;;;2.10;22.90;;;;;;5116863;27;20557;-75
2021/12/10 00:42:30;;;;;;;8.35;2.67;;;2.00;22.80;;;;;;5116142;27;20126;-74
2021/12/10 00:45:00;;;;;;;8.40;2.60;;;2.00;22.70;;;;;;5093000;27;20516;-75
2021/12/10 00:47:30;;;;;;;4.97;2.35;;;1.90;23.00;;;;;;5113917;27;20130;-75
2021/12/10 00:49:58;;;;;;;9.13;2.70;;;2.00;23.00;;;;;;5110785;27;20139;-75
2021/12/10 00:52:28;;;;;;;6.13;2.40;;;2.00;23.00;;;;;;5114301;27;20044;-75
2021/12/10 00:54:56;;;;;;;8.27;2.60;;;1.90;23.10;;;;;;5096061;27;20131;-75
2021/12/10 00:57:24;;;;;;;6.68;2.08;;;1.80;23.60;;;;;;5109801;27;20044;-74
2021/12/10 00:59:53;;;;;;;8.90;2.35;;;1.80;24.40;;;;;;5109353;27;20035;-75
2021/12/10 01:02:24;;;;;;;5.20;2.20;;;1.80;24.00;;;;;;5112056;27;20533;-75
2021/12/10 01:04:57;;;;;;;10.30;2.97;;;1.70;23.80;;;;;;5112723;27;20120;-75
2021/12/10 01:07:30;;;;;;;7.18;2.25;;;1.70;24.30;;;;;;5090834;28;20119;-75
2021/12/10 01:10:01;;;;;;;5.15;2.20;;;1.70;24.30;;;;;;5095235;27;20054;-74
2021/12/10 01:12:31;;;;;;;5.78;2.85;;;1.70;24.30;;;;;;5111239;27;20043;-74
2021/12/10 01:15:19;;;;;;;5.88;2.70;;;1.60;24.20;;;;;;5092683;27;20049;-74
2021/12/10 01:23:50;;;;;;;6.30;2.70;;;1.70;24.30;;;;;;5111002;27;20043;-74
2021/12/10 01:26:37;;;;;;;6.60;2.40;;;1.70;24.00;;;;;;5115145;27;20039;-74
2021/12/10 01:29:08;;;;;;;7.88;2.42;;;1.60;24.20;;;;;;5111632;27;20042;-74
2021/12/10 01:31:37;;;;;;;7.57;2.40;;;1.50;24.20;;;;;;5114170;28;20090;-73
2021/12/10 01:34:09;;;;;;;4.75;2.10;;;1.50;24.90;;;;;;5093731;28;20053;-74
2021/12/10 01:36:40;;;;;;;4.78;2.40;;;1.50;25.00;;;;;;5111765;27;20127;-74
2021/12/10 01:39:10;;;;;;;4.55;2.38;;;1.40;25.80;;;;;;5117186;28;20055;-74
2021/12/10 01:41:41;;;;;;;4.63;2.63;;;1.40;26.60;;;;;;5112399;27;20069;-74
2021/12/10 01:44:15;;;;;;;5.97;2.67;;;1.40;26.40;;;;;;5115372;27;20073;-74
2021/12/10 01:46:44;;;;;;;7.53;2.70;;;1.30;26.90;;;;;;5100782;28;20135;-73
2021/12/10 01:49:14;;;;;;;4.63;2.42;;;1.30;27.50;;;;;;5112386;27;20130;-73
2021/12/10 01:51:45;;;;;;;7.88;3.10;;;1.40;27.50;;;;;;5118448;27;20058;-73
2021/12/10 01:54:20;;;;;;;8.70;2.67;;;1.40;26.00;;;;;;5112374;28;20150;-73
2021/12/10 01:56:50;;;;;;;8.88;2.38;;;1.40;25.50;;;;;;5114528;27;20066;-73
2021/12/10 01:59:20;;;;;;;5.72;2.60;;;1.40;25.50;;;;;;5115365;27;20047;-73
2021/12/10 02:01:53;;;;;;;8.45;2.90;;;1.40;25.30;;;;;;5110948;28;20062;-74
2021/12/10 02:04:25;;;;;;;7.13;2.95;;;1.40;24.90;;;;;;5108777;27;20088;-74
2021/12/10 02:06:55;;;;;;;6.45;2.40;;;1.40;24.20;;;;;;5114789;27;20771;-74
2021/12/10 02:09:24;;;;;;;5.35;2.30;;;1.50;23.90;;;;;;5113237;27;20337;-74
2021/12/10 02:11:52;;;;;;;5.38;2.30;;;1.50;24.20;;;;;;5117399;27;20080;-74
2021/12/10 02:14:21;;;;;;;5.38;2.63;;;1.40;24.20;;;;;;5114976;28;20035;-73
2021/12/10 02:16:51;;;;;;;5.63;2.53;;;1.30;24.10;;;;;;5117878;27;20040;-72
2021/12/10 02:19:19;;;;;;;5.20;2.67;;;1.30;24.50;;;;;;5113664;27;20562;-72
2021/12/10 02:21:49;;;;;;;5.53;2.28;;;1.20;24.30;;;;;;5096502;28;20058;-72
2021/12/10 02:24:18;;;;;;;4.65;2.42;;;1.10;24.90;;;;;;5111867;28;20054;-72
2021/12/10 02:26:48;;;;;;;6.88;3.08;;;1.10;25.00;;;;;;5118627;27;20042;-72
2021/12/10 02:29:18;;;;;;;4.72;2.20;;;1.10;25.30;;;;;;5113955;27;20490;-72
2021/12/10 02:31:46;;;;;;;3.60;2.72;;;1.10;25.90;;;;;;5118567;27;20035;-73
2021/12/10 02:34:14;;;;;;;9.23;2.40;;;1.10;25.60;;;;;;5112072;28;20286;-72
2021/12/10 02:36:42;;;;;;;10.15;2.63;;;1.00;25.60;;;;;;5080797;28;20053;-72
2021/12/10 02:39:15;;;;;;;4.80;2.35;;;1.00;25.50;;;;;;5112646;27;20055;-72
2021/12/10 02:41:43;;;;;;;11.30;3.05;;;1.10;25.90;;;;;;5121762;27;20421;-72
2021/12/10 02:44:15;;;;;;;9.20;2.92;;;1.10;25.90;;;;;;5082958;27;20106;-72
2021/12/10 02:46:43;;;;;;;10.05;2.85;;;0.90;25.30;;;;;;5120698;27;20130;-72
2021/12/10 02:49:14;;;;;;;4.20;1.88;;;0.80;26.20;;;;;;5115438;27;20051;-74
2021/12/10 02:51:43;;;;;;;5.78;2.50;;;0.80;26.60;;;;;;5114191;27;20088;-74
2021/12/10 02:54:21;;;;;;;8.00;2.47;;;0.90;26.20;;;;;;5113768;27;20126;-74
2021/12/10 02:56:49;;;;;;;5.55;2.13;;;0.90;25.50;;;;;;5120540;27;20043;-73
2021/12/10 02:59:18;;;;;;;3.72;2.10;;;0.90;24.50;;;;;;5096446;27;20061;-74
2021/12/10 03:01:50;;;;;;;6.15;2.03;;;0.90;24.80;;;;;;5121200;27;20043;-74
2021/12/10 03:04:19;;;;;;;8.98;2.10;;;0.80;24.40;;;;;;5119568;27;20398;-74
2021/12/10 03:06:53;;;;;;;5.60;2.10;;;0.80;24.40;;;;;;5099487;27;20502;-74
2021/12/10 03:09:25;;;;;;;7.30;2.50;;;0.80;24.80;;;;;;5120825;27;20140;-74
2021/12/10 03:11:56;;;;;;;9.57;1.95;;;0.90;25.80;;;;;;5116293;27;20544;-72
2021/12/10 03:14:34;;;;;;;4.13;2.03;;;0.90;24.50;;;;;;5113901;27;20138;-72
2021/12/10 03:17:08;;;;;;;7.15;2.38;;;0.90;23.80;;;;;;5116233;27;20054;-72
2021/12/10 03:19:37;;;;;;;8.07;3.03;;;1.00;22.70;;;;;;5117279;27;20160;-73
2021/12/10 03:22:06;;;;;;;5.68;2.40;;;1.00;22.50;;;;;;5115516;27;20135;-72
2021/12/10 03:24:36;;;;;;;6.63;3.00;;;1.00;22.00;;;;;;5096283;27;20043;-73
2021/12/10 03:27:08;;;;;;;4.40;2.17;;;1.00;21.80;;;;;;5120952;27;20169;-73
2021/12/10 03:29:38;;;;;;;5.15;1.65;;;1.00;21.30;;;;;;5107546;27;20058;-73
2021/12/10 03:32:10;;;;;;;8.07;3.15;;;0.90;21.40;;;;;;5107856;27;20104;-73
2021/12/10 03:34:39;;;;;;;4.55;2.05;;;0.90;22.50;;;;;;5117799;27;20043;-73
2021/12/10 03:37:07;;;;;;;7.07;1.77;;;0.80;23.30;;;;;;5114661;27;20047;-73
2021/12/10 03:39:37;;;;;;;3.70;2.17;;;0.70;23.70;;;;;;5115973;27;20065;-73
2021/12/10 03:42:07;;;;;;;4.82;2.10;;;0.70;24.00;;;;;;5119917;27;20050;-73
2021/12/10 03:44:36;;;;;;;5.18;2.30;;;0.80;23.70;;;;;;5116592;27;20043;-73
2021/12/10 03:47:06;;;;;;;6.13;2.63;;;0.80;23.70;;;;;;5118649;27;20509;-72
2021/12/10 03:49:35;;;;;;;7.45;2.78;;;0.70;23.70;;;;;;5117478;27;20065;-73
2021/12/10 03:52:04;;;;;;;8.27;2.53;;;0.70;23.80;;;;;;5121508;27;20095;-73
2021/12/10 03:54:32;;;;;;;6.60;2.13;;;0.70;23.70;;;;;;5106536;27;20413;-73
2021/12/10 03:57:02;;;;;;;8.73;2.67;;;0.70;23.70;;;;;;5111620;27;20053;-73
2021/12/10 03:59:30;;;;;;;5.32;2.53;;;0.70;23.80;;;;;;5113599;27;20075;-73
2021/12/10 04:01:59;;;;;;;6.43;2.38;;;0.70;24.20;;;;;;5117992;27;20397;-72
2021/12/10 04:04:31;;;;;;;8.15;2.92;;;0.70;24.70;;;;;;5097232;27;20851;-72
2021/12/10 04:07:05;;;;;;;6.55;3.20;;;0.60;25.20;;;;;;5118414;27;20515;-74
2021/12/10 04:09:33;;;;;;;7.70;3.85;;;0.70;25.60;;;;;;5117158;27;20047;-73
2021/12/10 04:12:04;;;;;;;9.45;3.40;;;0.60;25.60;;;;;;5099974;27;20062;-74
2021/12/10 04:14:32;;;;;;;6.55;3.42;;;0.70;25.60;;;;;;5116598;27;20047;-73
2021/12/10 04:17:00;;;;;;;6.30;4.28;;;0.70;25.30;;;;;;5119273;27;20053;-73
2021/12/10 04:19:30;;;;;;;7.18;4.13;;;0.70;25.00;;;;;;5116176;27;20166;-72
2021/12/10 04:22:00;;;;;;;8.98;4.38;;;0.70;24.50;;;;;;5120643;27;20054;-72
2021/12/10 04:24:31;;;;;;;7.22;3.33;;;0.60;23.70;;;;;;5115294;27;20475;-72
2021/12/10 04:27:03;;;;;;;5.88;3.17;;;0.70;22.40;;;;;;5117439;27;20505;-72
2021/12/10 04:29:35;;;;;;;8.20;3.05;;;0.70;21.40;;;;;;5092167;27;20157;-72
2021/12/10 04:32:06;;;;;;;8.32;3.22;;;0.60;21.50;;;;;;5095849;27;20050;-74
2021/12/10 04:34:35;;;;;;;5.45;3.08;;;0.50;22.00;;;;;;5117323;27;20403;-72
2021/12/10 04:37:07;;;;;;;6.25;3.22;;;0.50;22.00;;;;;;5094989;27;20047;-73
2021/12/10 04:39:38;;;;;;;7.63;3.10;;;0.40;22.60;;;;;;5113697;27;20558;-73
2021/12/10 04:42:07;;;;;;;9.23;3.17;;;0.50;23.10;;;;;;5122511;27;20047;-73
2021/12/10 04:44:35;;;;;;;11.07;3.30;;;0.40;22.80;;;;;;5093526;27;20513;-73
2021/12/10 04:47:04;;;;;;;8.88;4.32;;;0.30;23.30;;;;;;5096365;27;20047;-73
2021/12/10 04:49:33;;;;;;;7.22;3.00;;;0.30;23.70;;;;;;5114408;27;20516;-73
2021/12/10 04:52:07;;;;;;;8.60;3.30;;;0.20;24.00;;;;;;5109888;27;20039;-73
2021/12/10 04:54:39;;;;;;;7.43;3.45;;;0.20;24.00;;;;;;5107735;27;20448;-73
2021/12/10 04:57:10;;;;;;;8.93;2.97;;;0.20;24.00;;;;;;5118197;27;20240;-72
2021/12/10 04:59:39;;;;;;;9.43;2.70;;;0.20;24.20;;;;;;5112135;27;20210;-73
2021/12/10 05:02:10;;;;;;;9.75;3.63;;;0.20;24.00;;;;;;5106961;27;20510;-73
2021/12/10 05:04:40;;;;;;;7.70;3.80;;;0.30;24.00;;;;;;5116127;27;20050;-73
2021/12/10 05:07:09;;;;;;;8.30;3.65;;;0.30;23.50;;;;;;5116066;27;20318;-73
2021/12/10 05:09:38;;;;;;;7.50;3.33;;;0.20;23.40;;;;;;5114548;27;20413;-72
2021/12/10 05:12:09;;;;;;;6.80;3.78;;;0.20;23.80;;;;;;5117970;27;20422;-73
2021/12/10 05:14:38;;;;;;;10.13;4.03;;;0.10;24.10;;;;;;5112181;27;20086;-73
2021/12/10 05:17:08;;;;;;;10.85;3.85;;;0.10;24.70;;;;;;5096814;27;20521;-73
2021/12/10 05:19:40;;;;;;;9.30;3.70;;;0.20;25.30;;;;;;5102951;27;20076;-72
2021/12/10 05:22:12;;;;;;;8.55;4.18;;;0.20;24.60;;;;;;5105945;27;20523;-73
2021/12/10 05:24:40;;;;;;;9.13;3.90;;;0.10;24.70;;;;;;5114052;27;20043;-72
2021/12/10 05:27:11;;;;;;;9.63;4.30;;;0.20;25.40;;;;;;5098206;28;20108;-72
2021/12/10 05:29:39;;;;;;;7.68;4.57;;;0.10;25.20;;;;;;5117055;27;20522;-73
2021/12/10 05:32:08;;;;;;;8.45;3.97;;;0.30;24.50;;;;;;5115221;27;20059;-70
2021/12/10 05:34:40;;;;;;;7.25;4.40;;;0.30;23.50;;;;;;5113151;28;20046;-71
2021/12/10 05:37:08;;;;;;;7.50;4.53;;;0.20;23.50;;;;;;5118496;27;20039;-71
2021/12/10 05:39:36;;;;;;;7.20;4.25;;;0.20;24.30;;;;;;5117542;27;20472;-71
2021/12/10 05:42:05;;;;;;;5.97;4.10;;;0.20;25.00;;;;;;5097537;28;20379;-71
2021/12/10 05:44:35;;;;;;;9.75;4.85;;;0.20;25.10;;;;;;5097291;28;20126;-71
2021/12/10 05:47:04;;;;;;;12.77;4.78;;;0.20;24.50;;;;;;5116538;27;20559;-71
2021/12/10 05:49:32;;;;;;;9.57;4.50;;;0.30;24.30;;;;;;5115424;28;20359;-71
2021/12/10 05:52:00;;;;;;;9.38;4.38;;;0.30;23.50;;;;;;5115266;27;20486;-72
2021/12/10 05:54:28;;;;;;;7.72;4.63;;;0.30;23.20;;;;;;5117441;27;20079;-72
2021/12/10 05:56:56;;;;;;;10.05;4.07;;;0.20;22.90;;;;;;5117294;28;20114;-71
2021/12/10 05:59:24;;;;;;;10.38;4.85;;;0.20;23.40;;;;;;5114633;27;20587;-71
2021/12/10 06:01:54;;;;;;;13.63;4.88;;;0.10;23.30;;;;;;5115666;27;20086;-72
2021/12/10 06:04:26;;;;;;;7.45;4.40;;;0.10;24.00;;;;;;5112295;28;20112;-72
2021/12/10 06:06:55;;;;;;;9.63;4.47;;;0.00;24.20;;;;;;5113782;27;20450;-72
2021/12/10 06:09:24;;;;;;;12.65;5.00;;;-0.10;25.20;;;;;;5117299;27;20043;-72
2021/12/10 06:11:52;;;;;;;8.27;4.82;;;0.00;25.30;;;;;;5103045;28;20051;-72
2021/12/10 06:14:20;;;;;;;8.57;4.55;;;0.00;25.30;;;;;;5114517;27;20047;-72
2021/12/10 06:16:48;;;;;;;8.50;4.40;;;0.00;24.60;;;;;;5112661;27;20146;-72
2021/12/10 06:19:17;;;;;;;9.25;4.63;;;0.10;25.10;;;;;;5116303;27;20117;-71
2021/12/10 06:21:49;;;;;;;10.38;5.40;;;0.20;24.80;;;;;;5118680;27;20047;-72
2021/12/10 06:24:17;;;;;;;11.90;5.22;;;0.20;24.40;;;;;;5117011;27;20171;-73
2021/12/10 06:26:48;;;;;;;11.90;5.25;;;0.30;21.80;;;;;;5119182;27;20045;-72
2021/12/10 06:29:16;;;;;;;10.48;4.75;;;0.40;21.00;;;;;;5115215;27;20447;-73
2021/12/10 06:31:44;;;;;;;9.63;5.25;;;0.30;21.00;;;;;;5121819;27;20058;-73
2021/12/10 06:34:12;;;;;;;8.77;5.72;;;0.30;21.60;;;;;;5116791;27;20058;-73
2021/12/10 06:36:42;;;;;;;12.25;5.25;;;0.20;21.80;;;;;;5122501;27;20126;-73
2021/12/10 06:39:11;;;;;;;10.73;4.65;;;0.20;22.60;;;;;;5118754;27;20857;-72
2021/12/10 06:41:42;;;;;;;12.20;5.95;;;0.30;22.80;;;;;;5101828;27;20447;-72
2021/12/10 06:44:13;;;;;;;10.82;5.60;;;0.30;23.50;;;;;;5120016;27;20274;-72
2021/12/10 06:46:44;;;;;;;11.75;5.60;;;0.30;23.50;;;;;;5113897;27;20197;-73
2021/12/10 06:49:12;;;;;;;11.32;6.07;;;0.30;23.50;;;;;;5117624;27;20058;-72
2021/12/10 06:51:42;;;;;;;16.50;6.30;;;0.30;23.50;;;;;;5098036;27;20054;-72
2021/12/10 06:54:10;;;;;;;14.45;6.25;;;0.30;23.50;;;;;;5116585;27;20054;-72
2021/12/10 06:56:39;;;;;;;13.07;5.93;;;0.30;23.40;;;;;;5121757;27;20440;-72
2021/12/10 06:59:10;;;;;;;14.10;5.25;;;0.30;22.60;;;;;;5112294;27;20490;-72
2021/12/10 07:01:43;;;;;;;12.43;5.63;;;0.30;22.80;;;;;;5117016;27;20483;-72
2021/12/10 07:04:14;;;;;;;12.32;6.75;;;0.30;23.20;;;;;;5118030;27;20047;-72
2021/12/10 07:06:45;;;;;;;13.45;6.13;;;0.30;23.40;;;;;;5120986;27;20043;-72
2021/12/10 07:09:16;;;;;;;15.93;6.88;;;0.30;23.50;;;;;;5106232;27;20050;-72
2021/12/10 07:11:46;;;;;;;12.40;6.18;;;0.30;23.70;;;;;;5119981;27;20039;-72
2021/12/10 07:14:14;;;;;;;13.57;6.88;;;0.40;23.50;;;;;;5115747;27;20147;-71
2021/12/10 07:16:42;;;;;;;11.57;5.93;;;0.40;23.50;;;;;;5101923;27;20126;-71
2021/12/10 07:19:11;;;;;;;9.88;6.10;;;0.50;22.80;;;;;;5113281;27;20566;-71
2021/12/10 07:21:39;;;;;;;14.27;6.20;;;0.40;21.10;;;;;;5121061;27;20042;-72
2021/12/10 07:24:11;;;;;;;13.18;6.75;;;0.50;21.10;;;;;;5116978;27;20166;-71
2021/12/10 07:26:39;;;;;;;12.20;6.75;;;0.50;21.10;;;;;;5118341;27;20134;-72
2021/12/10 07:29:08;;;;;;;16.33;6.88;;;0.50;21.70;;;;;;5117316;27;20043;-72
2021/12/10 07:31:40;;;;;;;12.98;6.82;;;0.60;22.20;;;;;;5121043;27;20401;-72
2021/12/10 07:34:08;;;;;;;18.65;8.10;;;0.60;21.50;;;;;;5115296;27;20057;-72
2021/12/10 07:36:38;;;;;;;19.48;8.43;;;0.60;22.00;;;;;;5099421;27;20039;-71
2021/12/10 07:39:09;;;;;;;18.10;7.82;;;0.60;20.20;;;;;;5114024;27;20054;-72
2021/12/10 07:41:40;;;;;;;12.82;7.10;;;0.60;20.30;;;;;;5081958;27;20590;-72
2021/12/10 07:44:09;;;;;;;16.92;7.93;;;0.70;21.10;;;;;;5120376;27;20513;-72
2021/12/10 07:46:37;;;;;;;15.80;7.85;;;0.70;20.80;;;;;;5118954;27;20047;-72
2021/12/10 07:49:13;;;;;;;20.17;7.80;;;0.70;20.90;;;;;;5114910;27;20120;-71
2021/12/10 07:51:44;;;;;;;15.30;7.63;;;0.60;21.30;;;;;;5119303;27;20142;-72
2021/12/10 07:54:13;;;;;;;13.82;8.27;;;0.70;22.00;;;;;;5114368;27;20763;-72
2021/12/10 07:56:41;;;;;;;19.17;8.63;;;0.80;21.20;;;;;;5119786;27;20039;-72
2021/12/10 07:59:09;;;;;;;20.52;10.70;;;0.70;20.30;;;;;;5113404;27;20039;-72
2021/12/10 08:01:38;;;;;;;25.80;12.07;;;0.90;21.60;;;;;;5115649;27;20055;-73
2021/12/10 08:04:07;;;;;;;22.33;8.23;;;1.00;19.40;;;;;;5118008;27;20147;-73
2021/12/10 08:06:37;;;;;;;13.23;7.00;;;0.90;18.70;;;;;;5120600;27;20157;-71
2021/12/10 08:09:08;;;;;;;13.15;6.93;;;1.00;19.10;;;;;;5116504;27;20115;-71
2021/12/10 08:11:39;;;;;;;16.27;7.10;;;1.10;19.30;;;;;;5117738;27;20048;-71
2021/12/10 08:14:09;;;;;;;13.98;6.85;;;1.00;18.40;;;;;;5112550;27;20051;-71
2021/12/10 08:16:39;;;;;;;14.15;7.47;;;1.00;18.20;;;;;;5102653;27;20138;-71
2021/12/10 08:19:07;;;;;;;15.98;7.47;;;1.10;18.40;;;;;;5108874;27;20134;-72
2021/12/10 08:21:35;;;;;;;11.77;6.57;;;1.10;17.90;;;;;;5106923;27;20043;-71
2021/12/10 08:24:05;;;;;;;13.55;7.43;;;1.20;17.20;;;;;;5096094;27;20044;-71
2021/12/10 08:26:35;;;;;;;16.10;7.05;;;1.10;17.80;;;;;;5117981;27;20146;-71
2021/12/10 08:29:05;;;;;;;14.95;7.35;;;1.00;18.00;;;;;;5086604;27;20119;-72
2021/12/10 08:31:33;;;;;;;15.15;6.38;;;1.10;18.80;;;;;;5112613;27;20696;-72
2021/12/10 08:34:02;;;;;;;13.32;7.50;;;1.10;18.90;;;;;;5106930;27;20044;-71
2021/12/10 08:36:33;;;;;;;11.85;6.78;;;1.10;18.80;;;;;;5109626;27;20414;-72
2021/12/10 08:39:02;;;;;;;18.33;8.00;;;1.20;18.30;;;;;;5117657;27;20050;-71
2021/12/10 08:41:34;;;;;;;13.65;7.00;;;1.10;18.00;;;;;;5112765;27;21563;-72
2021/12/10 08:44:04;;;;;;;13.65;6.60;;;1.10;17.70;;;;;;5116217;27;20129;-72
2021/12/10 08:46:36;;;;;;;17.55;7.88;;;1.10;18.30;;;;;;5114383;27;20047;-72
2021/12/10 08:49:09;;;;;;;16.70;8.70;;;1.20;17.20;;;;;;5113752;27;20117;-72
2021/12/10 08:51:41;;;;;;;14.63;8.20;;;1.30;17.20;;;;;;5117997;27;20042;-72
2021/12/10 08:54:12;;;;;;;16.98;8.15;;;1.30;16.20;;;;;;5114504;27;20074;-72
2021/12/10 08:56:40;;;;;;;17.20;8.63;;;1.30;16.60;;;;;;5117644;27;20039;-72
2021/12/10 08:59:13;;;;;;;13.60;8.52;;;1.40;16.80;;;;;;5114169;27;20147;-72
2021/12/10 09:01:46;;;;;;;14.65;8.57;;;1.50;16.30;;;;;;5104881;27;20078;-73
2021/12/10 09:04:14;;;;;;;14.30;8.00;;;1.40;14.10;;;;;;5113639;27;20043;-72
2021/12/10 09:06:49;;;;;;;18.05;8.18;;;1.40;13.80;;;;;;5103856;27;20070;-72
2021/12/10 09:09:19;;;;;;;17.73;7.38;;;1.50;14.80;;;;;;5108880;27;20139;-72
2021/12/10 09:11:49;;;;;;;14.68;8.25;;;1.50;13.90;;;;;;5108169;27;20134;-72
2021/12/10 09:14:24;;;;;;;13.05;7.15;;;1.60;13.00;;;;;;5104105;27;20148;-72
2021/12/10 09:16:55;;;;;;;16.13;8.35;;;1.70;14.00;;;;;;5117160;27;20081;-72
2021/12/10 09:19:24;;;;;;;16.42;7.40;;;1.70;13.20;;;;;;5115109;27;20039;-73
2021/12/10 09:21:52;;;;;;;14.80;7.25;;;1.80;11.60;;;;;;5109807;27;20630;-73
2021/12/10 09:24:23;;;;;;;11.70;6.72;;;1.80;11.10;;;;;;5087054;27;20066;-72
2021/12/10 09:26:57;;;;;;;14.48;6.97;;;1.90;10.30;;;;;;5114974;27;20600;-72
2021/12/10 09:29:31;;;;;;;16.15;7.30;;;1.90;10.60;;;;;;5095232;28;20473;-73
2021/12/10 09:32:00;;;;;;;15.10;7.45;;;2.00;10.70;;;;;;5115515;27;20513;-73
2021/12/10 09:34:29;;;;;;;14.73;7.63;;;1.90;9.90;;;;;;5114561;27;20409;-73
2021/12/10 09:36:58;;;;;;;11.30;7.10;;;1.90;10.20;;;;;;5099759;28;20049;-73
2021/12/10 09:39:28;;;;;;;12.05;6.45;;;1.90;10.10;;;;;;5116702;27;20042;-72
2021/12/10 09:41:56;;;;;;;12.77;6.72;;;1.90;8.80;;;;;;5098118;27;20070;-73
2021/12/10 09:44:24;;;;;;;13.45;7.22;;;2.00;8.70;;;;;;5115877;28;20061;-73
2021/12/10 09:46:54;;;;;;;16.05;7.07;;;2.00;7.70;;;;;;5116927;27;20142;-71
2021/12/10 09:49:24;;;;;;;16.05;6.50;;;2.00;7.00;;;;;;5112983;27;20121;-73
2021/12/10 09:51:56;;;;;;;15.48;7.07;;;2.00;7.00;;;;;;5119039;27;20407;-72
2021/12/10 09:54:27;;;;;;;14.90;6.40;;;2.00;7.10;;;;;;5120204;27;20154;-72
2021/12/10 09:56:59;;;;;;;15.73;7.22;;;2.10;7.20;;;;;;5117833;27;20058;-72
2021/12/10 09:59:27;;;;;;;21.33;10.77;;;2.10;7.20;;;;;;5118431;27;20047;-71
2021/12/10 10:01:59;;;;;;;13.88;7.30;;;2.40;7.40;;;;;;5119423;27;20046;-73
2021/12/10 10:04:33;;;;;;;14.68;7.30;;;2.40;6.30;;;;;;5118326;27;20819;-74
2021/12/10 10:07:06;;;;;;;14.57;6.90;;;2.30;5.80;;;;;;5121209;27;20550;-72
2021/12/10 10:09:36;;;;;;;14.68;7.47;;;2.30;4.30;;;;;;5119537;27;20043;-72
2021/12/10 10:12:07;;;;;;;18.23;7.35;;;2.30;5.10;;;;;;5118753;27;20628;-72
2021/12/10 10:14:37;;;;;;;18.90;7.40;;;2.20;5.40;;;;;;5118802;27;20043;-73
2021/12/10 10:17:08;;;;;;;18.02;7.18;;;2.30;6.30;;;;;;5120018;27;20174;-73
2021/12/10 10:19:36;;;;;;;14.85;6.97;;;2.40;4.80;;;;;;5122235;27;20520;-73
2021/12/10 10:22:08;;;;;;;14.70;7.60;;;2.30;5.40;;;;;;5122027;27;20050;-73
2021/12/10 10:24:36;;;;;;;12.85;6.70;;;2.40;5.50;;;;;;5116036;27;20142;-73
2021/12/10 10:27:10;;;;;;;13.48;6.88;;;2.40;4.30;;;;;;5119095;27;20391;-73
2021/12/10 10:29:42;;;;;;;11.75;6.85;;;2.40;4.80;;;;;;5118667;27;20058;-72
2021/12/10 10:32:17;;;;;;;14.45;6.88;;;2.50;5.00;;;;;;5101456;27;20471;-73
2021/12/10 10:34:49;;;;;;;10.25;5.75;;;2.60;3.80;;;;;;5114321;27;20050;-73
2021/12/10 10:37:18;;;;;;;12.10;6.25;;;2.70;2.20;;;;;;5106581;27;20099;-72
2021/12/10 10:39:48;;;;;;;10.38;5.53;;;2.70;1.00;;;;;;5115226;27;20578;-72
2021/12/10 10:42:21;;;;;;;10.55;6.20;;;2.70;1.00;;;;;;5115883;27;20707;-73
2021/12/10 10:44:57;;;;;;;9.30;5.03;;;2.70;1.00;;;;;;5116448;27;20065;-75
2021/12/10 10:47:27;;;;;;;10.30;5.05;;;2.70;1.00;;;;;;5116083;27;20142;-75
2021/12/10 10:49:58;;;;;;;7.90;4.45;;;2.70;1.00;;;;;;5114888;27;20120;-74
2021/12/10 10:52:29;;;;;;;8.18;4.82;;;2.60;1.00;;;;;;5113872;27;20047;-71
2021/12/10 10:55:01;;;;;;;12.43;5.22;;;2.70;1.00;;;;;;5097533;27;20588;-74
2021/12/10 10:57:33;;;;;;;6.28;4.15;;;2.80;1.00;;;;;;5119080;27;20039;-71
2021/12/10 11:00:18;;;;;;;7.22;4.28;;;2.80;1.00;;;;;;5118331;27;20070;-71
2021/12/10 11:02:52;;;;;;;8.32;3.70;;;2.90;1.00;;;;;;5118046;27;20146;-72
2021/12/10 11:05:23;;;;;;;4.95;3.92;;;3.00;1.00;;;;;;5097605;27;20046;-71
2021/12/10 11:07:54;;;;;;;12.35;4.50;;;3.00;1.00;;;;;;5120346;27;20133;-72
2021/12/10 11:10:29;;;;;;;8.48;3.88;;;3.10;1.00;;;;;;5118666;27;20126;-72
2021/12/10 11:13:12;;;;;;;7.78;4.25;;;3.10;1.00;;;;;;5115708;27;20047;-72
2021/12/10 11:15:53;;;;;;;5.53;3.22;;;3.10;1.00;;;;;;5098987;27;20093;-72
2021/12/10 11:18:23;;;;;;;7.88;3.97;;;3.10;1.00;;;;;;5120201;27;20115;-71
2021/12/10 11:20:51;;;;;;;9.18;4.03;;;3.20;1.00;;;;;;5116716;27;20082;-72
2021/12/10 11:23:25;;;;;;;6.10;3.40;;;3.10;1.00;;;;;;5119655;27;20058;-72
2021/12/10 11:25:55;;;;;;;8.77;3.25;;;3.40;1.00;;;;;;5113775;27;20278;-72
2021/12/10 11:28:31;;;;;;;11.45;4.32;;;3.40;1.00;;;;;;5119483;27;20185;-72
2021/12/10 11:31:04;;;;;;;6.97;3.25;;;3.40;1.00;;;;;;5118294;27;20540;-73
2021/12/10 11:33:36;;;;;;;7.83;3.10;;;3.40;1.00;;;;;;5120024;27;20570;-72
2021/12/10 11:36:09;;;;;;;8.85;3.97;;;3.40;1.00;;;;;;5113879;27;20129;-72
2021/12/10 11:38:39;;;;;;;7.47;3.50;;;3.40;1.00;;;;;;5117555;27;20043;-71
2021/12/10 11:41:12;;;;;;;8.45;3.80;;;3.60;1.00;;;;;;5117254;27;20054;-72
2021/12/10 11:43:52;;;;;;;9.25;3.88;;;3.60;1.00;;;;;;5119260;27;20062;-73
2021/12/10 11:46:43;;;;;;;7.22;3.60;;;3.60;1.00;;;;;;5112913;27;20043;-73
2021/12/10 11:49:18;;;;;;;7.55;4.35;;;3.60;1.00;;;;;;5113544;27;20043;-72
2021/12/10 11:51:49;;;;;;;7.13;3.70;;;3.50;1.00;;;;;;5113291;27;20108;-72
2021/12/10 11:54:27;;;;;;;9.27;3.88;;;3.60;1.00;;;;;;5116191;27;20418;-72
2021/12/10 11:57:01;;;;;;;10.77;4.20;;;3.60;1.00;;;;;;5110988;27;20066;-73
2021/12/10 11:59:32;;;;;;;9.05;4.25;;;3.50;1.00;;;;;;5119407;27;20260;-72
2021/12/10 12:02:04;;;;;;;7.07;4.10;;;3.40;1.00;;;;;;5111830;27;21119;-72
2021/12/10 12:04:40;;;;;;;7.10;2.97;;;3.50;1.00;;;;;;5112688;27;20062;-72
2021/12/10 12:07:33;;;;;;;5.78;2.40;;;3.50;1.00;;;;;;5115807;27;20550;-72
2021/12/10 12:10:11;;;;;;;5.57;2.20;;;3.50;1.00;;;;;;5109577;27;20039;-73
2021/12/10 12:12:42;;;;;;;1.75;1.00;;;3.40;1.00;;;;;;5089233;28;20249;-73
2021/12/10 12:15:16;;;;;;;1.98;1.00;;;3.20;1.00;;;;;;5088904;28;20043;-73
2021/12/10 12:17:46;;;;;;;3.50;1.00;;;3.10;1.00;;;;;;5091156;27;20051;-72
2021/12/10 12:20:39;;;;;;;4.30;0.88;;;3.00;5.00;;;;;;5086339;28;20047;-72
2021/12/10 12:26:00;;;;;;;25.35;13.05;;;2.90;7.70;;;;;;5096774;27;20047;-74
2021/12/10 12:28:51;;;;;;;3.00;1.15;;;2.80;10.00;;;;;;5086760;28;20119;-73
2021/12/10 12:31:39;;;;;;;3.47;1.35;;;2.70;11.60;;;;;;5086150;28;20040;-74
2021/12/10 12:34:10;;;;;;;4.15;1.65;;;2.70;13.00;;;;;;5095150;28;20407;-73
2021/12/10 12:36:43;;;;;;;2.50;1.50;;;2.60;14.20;;;;;;5078464;28;20503;-73
2021/12/10 12:39:14;;;;;;;6.93;2.73;;;2.60;14.60;;;;;;5095996;27;20043;-74
2021/12/10 12:41:45;;;;;;;7.78;2.45;;;2.50;15.90;;;;;;5095682;28;20055;-71
2021/12/10 12:44:18;;;;;;;5.22;2.30;;;2.30;18.30;;;;;;5093212;28;20504;-74
2021/12/10 12:47:12;;;;;;;4.13;1.70;;;2.30;19.50;;;;;;5092719;28;20217;-72
2021/12/10 12:50:00;;;;;;;2.40;1.67;;;2.30;21.30;;;;;;5083878;28;20075;-73
2021/12/10 12:52:36;;;;;;;3.47;1.75;;;2.20;21.30;;;;;;5089598;28;20050;-72
2021/12/10 12:55:30;;;;;;;3.20;1.73;;;2.10;22.60;;;;;;5093550;28;20039;-73
2021/12/10 12:58:13;;;;;;;7.80;2.30;;;2.10;25.10;;;;;;5096475;27;20044;-73
2021/12/10 13:01:09;;;;;;;2.88;1.80;;;2.00;26.20;;;;;;5102511;27;20407;-73
2021/12/10 13:03:44;;;;;;;3.10;1.55;;;1.90;26.70;;;;;;5094687;28;20509;-74
2021/12/10 13:06:44;;;;;;;4.55;2.33;;;1.90;27.30;;;;;;5094241;28;20070;-71
2021/12/10 13:09:16;;;;;;;23.73;13.10;;;2.00;29.10;;;;;;5096795;27;20145;-74
2021/12/10 13:11:56;;;;;;;5.80;2.08;;;2.00;28.30;;;;;;5100012;28;20054;-74
2021/12/10 13:14:45;;;;;;;3.80;1.75;;;2.10;29.20;;;;;;5067666;28;20054;-72
2021/12/10 13:17:15;;;;;;;3.40;1.80;;;2.10;28.70;;;;;;5100646;27;20048;-72
2021/12/10 13:19:43;;;;;;;5.90;2.90;;;2.20;28.90;;;;;;5095002;27;20135;-72
2021/12/10 13:22:15;;;;;;;5.07;2.05;;;2.20;28.70;;;;;;5080035;28;20071;-72
2021/12/10 13:24:47;;;;;;;5.38;2.50;;;2.00;28.60;;;;;;5093163;28;20548;-72
2021/12/10 13:27:18;;;;;;;5.13;2.45;;;2.10;29.90;;;;;;5093345;28;20057;-73